Time,TemperatureF,DewpointF,PressureIn,WindDirection,WindDirectionDegrees,WindSpeedMPH,WindSpeedGustMPH,Humidity,HourlyPrecipIn,Conditions,Clouds,dailyrainin,SolarRadiationWatts/m^2,SoftwareType,DateUTC
2013-06-09 00:02:00,64.0,47.0,-100.00,ESE,113,0.0,0.0,53,0.00,,,0.00,0.000000,,2013-06-09 07:02:00,
2013-06-09 00:22:00,64.0,47.0,-100.00,ESE,113,0.0,0.0,53,0.00,,,0.00,0.000000,,2013-06-09 07:22:00,
2013-06-09 00:32:00,64.0,47.0,-100.00,ESE,113,0.0,0.0,53,0.00,,,0.00,0.000000,,2013-06-09 07:32:00,
2013-06-09 00:42:00,64.0,47.0,-100.00,ESE,113,0.0,0.0,53,0.00,,,0.00,0.000000,,2013-06-09 07:42:00,
2013-06-09 00:52:00,64.0,47.0,-100.00,ESE,113,0.0,0.0,53,0.00,,,0.00,0.000000,,2013-06-09 07:52:00,
2013-06-09 01:02:00,64.0,44.0,-100.00,NE,43,0.0,5.0,49,-99.99,,,0.00,0.000000,,2013-06-09 08:02:00,
2013-06-09 01:22:00,64.0,44.0,-100.00,NE,43,0.0,5.0,49,-99.99,,,0.00,0.000000,,2013-06-09 08:22:00,
2013-06-09 01:32:00,64.0,44.0,-100.00,NE,43,0.0,5.0,49,-99.99,,,0.00,0.000000,,2013-06-09 08:32:00,
2013-06-09 01:42:00,64.0,44.0,-100.00,NE,43,0.0,5.0,49,-99.99,,,0.00,0.000000,,2013-06-09 08:42:00,
2013-06-09 01:53:00,64.0,44.0,-100.00,NE,43,0.0,5.0,49,-99.99,,,0.00,0.000000,,2013-06-09 08:53:00,
2013-06-09 02:02:00,64.0,40.0,-100.00,WSW,249,0.0,0.0,41,-99.99,,,0.00,0.000000,,2013-06-09 09:02:00,
2013-06-09 02:22:00,64.0,40.0,-100.00,WSW,249,0.0,0.0,41,-99.99,,,0.00,0.000000,,2013-06-09 09:22:00,
2013-06-09 02:33:00,64.0,40.0,-100.00,WSW,249,0.0,0.0,41,-99.99,,,0.00,0.000000,,2013-06-09 09:33:00,
2013-06-09 02:43:00,64.0,40.0,-100.00,WSW,249,0.0,0.0,41,-99.99,,,0.00,0.000000,,2013-06-09 09:43:00,
2013-06-09 02:52:00,64.0,40.0,-100.00,WSW,249,0.0,0.0,41,-99.99,,,0.00,0.000000,,2013-06-09 09:52:00,
2013-06-09 03:02:00,66.0,36.0,-100.00,East,101,0.0,6.0,33,-99.99,,,0.00,0.000000,,2013-06-09 10:02:00,
2013-06-09 03:23:00,66.0,36.0,-100.00,East,101,0.0,6.0,33,-99.99,,,0.00,0.000000,,2013-06-09 10:23:00,
2013-06-09 03:32:00,66.0,36.0,-100.00,East,101,0.0,6.0,33,-99.99,,,0.00,0.000000,,2013-06-09 10:32:00,
2013-06-09 03:43:00,66.0,36.0,-100.00,East,101,0.0,6.0,33,-99.99,,,0.00,0.000000,,2013-06-09 10:43:00,
2013-06-09 03:52:00,66.0,36.0,-100.00,East,101,0.0,6.0,33,-99.99,,,0.00,0.000000,,2013-06-09 10:52:00,
2013-06-09 04:02:00,64.0,37.0,-100.00,ESE,102,1.0,5.0,36,-99.99,,,0.00,0.000000,,2013-06-09 11:02:00,
2013-06-09 04:22:00,64.0,37.0,-100.00,ESE,102,1.0,5.0,36,-99.99,,,0.00,0.000000,,2013-06-09 11:22:00,
2013-06-09 04:32:00,64.0,37.0,-100.00,ESE,102,1.0,5.0,36,-99.99,,,0.00,0.000000,,2013-06-09 11:32:00,
2013-06-09 04:42:00,64.0,37.0,-100.00,ESE,102,1.0,5.0,36,-99.99,,,0.00,0.000000,,2013-06-09 11:42:00,
2013-06-09 04:52:00,64.0,37.0,-100.00,ESE,102,1.0,5.0,36,-99.99,,,0.00,0.000000,,2013-06-09 11:52:00,
2013-06-09 05:02:00,60.0,36.0,-100.00,East,97,0.0,5.0,40,-99.99,,,0.00,0.000000,,2013-06-09 12:02:00,
2013-06-09 05:22:00,60.0,36.0,-100.00,East,97,0.0,5.0,40,-99.99,,,0.00,0.000000,,2013-06-09 12:22:00,
2013-06-09 05:32:00,60.0,36.0,-100.00,East,97,0.0,5.0,40,-99.99,,,0.00,0.000000,,2013-06-09 12:32:00,
2013-06-09 05:42:00,60.0,36.0,-100.00,East,97,0.0,5.0,40,-99.99,,,0.00,0.000000,,2013-06-09 12:42:00,
2013-06-09 05:52:00,60.0,36.0,-100.00,East,97,0.0,5.0,40,-99.99,,,0.00,0.000000,,2013-06-09 12:52:00,
2013-06-09 06:02:00,61.0,37.0,-100.00,East,95,2.0,5.0,41,-99.99,,,0.00,3.000000,,2013-06-09 13:02:00,
2013-06-09 06:22:00,61.0,37.0,-100.00,East,95,2.0,5.0,41,-99.99,,,0.00,3.000000,,2013-06-09 13:22:00,
2013-06-09 06:32:00,61.0,37.0,-100.00,East,95,2.0,5.0,41,-99.99,,,0.00,3.000000,,2013-06-09 13:32:00,
2013-06-09 06:42:00,61.0,37.0,-100.00,East,95,2.0,5.0,41,-99.99,,,0.00,3.000000,,2013-06-09 13:42:00,
2013-06-09 06:52:00,61.0,37.0,-100.00,East,95,2.0,5.0,41,-99.99,,,0.00,3.000000,,2013-06-09 13:52:00,
2013-06-09 07:02:00,60.0,38.0,-100.00,ENE,68,0.0,6.0,44,-99.99,,,0.00,19.000000,,2013-06-09 14:02:00,
2013-06-09 07:22:00,60.0,38.0,-100.00,ENE,68,0.0,6.0,44,-99.99,,,0.00,19.000000,,2013-06-09 14:22:00,
2013-06-09 07:32:00,60.0,38.0,-100.00,ENE,68,0.0,6.0,44,-99.99,,,0.00,19.000000,,2013-06-09 14:32:00,
2013-06-09 07:43:00,60.0,38.0,-100.00,ENE,68,0.0,6.0,44,-99.99,,,0.00,19.000000,,2013-06-09 14:43:00,
2013-06-09 07:52:00,60.0,38.0,-100.00,ENE,68,0.0,6.0,44,-99.99,,,0.00,19.000000,,2013-06-09 14:52:00,
2013-06-09 08:02:00,68.0,43.0,-100.00,WNW,295,0.0,3.0,40,-99.99,,,0.00,81.000000,,2013-06-09 15:02:00,
2013-06-09 08:22:00,68.0,43.0,-100.00,WNW,295,0.0,3.0,40,-99.99,,,0.00,81.000000,,2013-06-09 15:22:00,
2013-06-09 08:33:00,68.0,43.0,-100.00,WNW,295,0.0,3.0,40,-99.99,,,0.00,81.000000,,2013-06-09 15:33:00,
2013-06-09 08:43:00,68.0,43.0,-100.00,WNW,295,0.0,3.0,40,-99.99,,,0.00,81.000000,,2013-06-09 15:43:00,
2013-06-09 08:53:00,68.0,43.0,-100.00,WNW,295,0.0,3.0,40,-99.99,,,0.00,81.000000,,2013-06-09 15:53:00,
2013-06-09 09:02:00,83.0,47.0,-100.00,SSW,202,0.0,0.0,28,0.00,,,0.00,566.000000,,2013-06-09 16:02:00,
2013-06-09 09:23:00,83.0,47.0,-100.00,SSW,202,0.0,0.0,28,0.00,,,0.00,566.000000,,2013-06-09 16:23:00,
2013-06-09 09:33:00,83.0,47.0,-100.00,SSW,202,0.0,0.0,28,0.00,,,0.00,566.000000,,2013-06-09 16:33:00,
2013-06-09 09:42:00,83.0,47.0,-100.00,SSW,202,0.0,0.0,28,0.00,,,0.00,566.000000,,2013-06-09 16:42:00,
2013-06-09 09:53:00,83.0,47.0,-100.00,SSW,202,0.0,0.0,28,0.00,,,0.00,566.000000,,2013-06-09 16:53:00,
2013-06-09 10:02:00,88.0,42.0,-100.00,NW,324,0.0,5.0,20,0.00,,,0.00,770.000000,,2013-06-09 17:02:00,
2013-06-09 10:22:00,88.0,42.0,-100.00,NW,324,0.0,5.0,20,0.00,,,0.00,770.000000,,2013-06-09 17:22:00,
2013-06-09 10:32:00,88.0,42.0,-100.00,NW,324,0.0,5.0,20,0.00,,,0.00,770.000000,,2013-06-09 17:32:00,
2013-06-09 10:42:00,88.0,42.0,-100.00,NW,324,0.0,5.0,20,0.00,,,0.00,770.000000,,2013-06-09 17:42:00,
2013-06-09 10:52:00,88.0,42.0,-100.00,NW,324,0.0,5.0,20,0.00,,,0.00,770.000000,,2013-06-09 17:52:00,
2013-06-09 11:02:00,90.0,46.0,-100.00,North,4,2.0,5.0,22,0.00,,,0.00,938.000000,,2013-06-09 18:02:00,
2013-06-09 11:22:00,90.0,46.0,-100.00,North,4,2.0,5.0,22,0.00,,,0.00,938.000000,,2013-06-09 18:22:00,
2013-06-09 11:33:00,90.0,46.0,-100.00,North,4,2.0,5.0,22,0.00,,,0.00,938.000000,,2013-06-09 18:33:00,
2013-06-09 11:42:00,90.0,46.0,-100.00,North,4,2.0,5.0,22,0.00,,,0.00,938.000000,,2013-06-09 18:42:00,
2013-06-09 11:52:00,90.0,46.0,-100.00,North,4,2.0,5.0,22,0.00,,,0.00,938.000000,,2013-06-09 18:52:00,
2013-06-09 12:02:00,91.0,47.0,-100.00,NW,323,3.0,9.0,22,0.00,,,0.00,954.000000,,2013-06-09 19:02:00,
2013-06-09 12:22:00,91.0,47.0,-100.00,NW,323,3.0,9.0,22,0.00,,,0.00,954.000000,,2013-06-09 19:22:00,
2013-06-09 12:32:00,91.0,47.0,-100.00,NW,323,3.0,9.0,22,0.00,,,0.00,954.000000,,2013-06-09 19:32:00,
2013-06-09 12:42:00,91.0,47.0,-100.00,NW,323,3.0,9.0,22,0.00,,,0.00,954.000000,,2013-06-09 19:42:00,
2013-06-09 12:52:00,91.0,47.0,-100.00,NW,323,3.0,9.0,22,0.00,,,0.00,954.000000,,2013-06-09 19:52:00,
2013-06-09 13:02:00,92.0,51.0,-100.00,NW,318,4.0,10.0,25,0.00,,,0.00,1113.000000,,2013-06-09 20:02:00,
2013-06-09 13:22:00,92.0,51.0,-100.00,NW,318,4.0,10.0,25,0.00,,,0.00,1113.000000,,2013-06-09 20:22:00,
2013-06-09 13:32:00,92.0,51.0,-100.00,NW,318,4.0,10.0,25,0.00,,,0.00,1113.000000,,2013-06-09 20:32:00,
2013-06-09 13:42:00,92.0,51.0,-100.00,NW,318,4.0,10.0,25,0.00,,,0.00,1113.000000,,2013-06-09 20:42:00,
2013-06-09 13:52:00,92.0,51.0,-100.00,NW,318,4.0,10.0,25,0.00,,,0.00,1113.000000,,2013-06-09 20:52:00,
2013-06-09 14:02:00,92.0,55.0,-100.00,NW,315,4.0,10.0,29,0.00,,,0.00,1099.000000,,2013-06-09 21:02:00,
2013-06-09 14:22:00,92.0,55.0,-100.00,NW,315,4.0,10.0,29,0.00,,,0.00,1099.000000,,2013-06-09 21:22:00,
2013-06-09 14:33:00,92.0,55.0,-100.00,NW,315,4.0,10.0,29,0.00,,,0.00,1099.000000,,2013-06-09 21:33:00,
2013-06-09 14:43:00,92.0,55.0,-100.00,NW,315,4.0,10.0,29,0.00,,,0.00,1099.000000,,2013-06-09 21:43:00,
2013-06-09 14:53:00,92.0,55.0,-100.00,NW,315,4.0,10.0,29,0.00,,,0.00,1099.000000,,2013-06-09 21:53:00,
2013-06-09 15:02:00,84.0,52.0,-100.00,North,0,2.0,13.0,33,0.00,,,0.00,920.000000,,2013-06-09 22:02:00,
2013-06-09 15:23:00,84.0,52.0,-100.00,North,0,2.0,13.0,33,0.00,,,0.00,920.000000,,2013-06-09 22:23:00,
2013-06-09 15:33:00,84.0,52.0,-100.00,North,0,2.0,13.0,33,0.00,,,0.00,920.000000,,2013-06-09 22:33:00,
2013-06-09 15:42:00,84.0,52.0,-100.00,North,0,2.0,13.0,33,0.00,,,0.00,920.000000,,2013-06-09 22:42:00,
2013-06-09 15:52:00,84.0,52.0,-100.00,North,0,2.0,13.0,33,0.00,,,0.00,920.000000,,2013-06-09 22:52:00,
2013-06-09 16:02:00,82.0,54.0,-100.00,North,355,2.0,9.0,38,0.00,,,0.00,357.000000,,2013-06-09 23:02:00,
2013-06-09 16:22:00,82.0,54.0,-100.00,North,355,2.0,9.0,38,0.00,,,0.00,357.000000,,2013-06-09 23:22:00,
2013-06-09 16:32:00,82.0,54.0,-100.00,North,355,2.0,9.0,38,0.00,,,0.00,357.000000,,2013-06-09 23:32:00,
2013-06-09 16:43:00,82.0,54.0,-100.00,North,355,2.0,9.0,38,0.00,,,0.00,357.000000,,2013-06-09 23:43:00,
2013-06-09 16:52:00,82.0,54.0,-100.00,North,355,2.0,9.0,38,0.00,,,0.00,357.000000,,2013-06-09 23:52:00,
2013-06-09 17:02:00,78.0,52.0,-100.00,NW,316,2.0,8.0,40,0.00,,,0.00,441.000000,,2013-06-10 00:02:00,
2013-06-09 17:22:00,78.0,52.0,-100.00,NW,316,2.0,8.0,40,0.00,,,0.00,441.000000,,2013-06-10 00:22:00,
2013-06-09 17:32:00,78.0,52.0,-100.00,NW,316,2.0,8.0,40,0.00,,,0.00,441.000000,,2013-06-10 00:32:00,
2013-06-09 17:42:00,78.0,52.0,-100.00,NW,316,2.0,8.0,40,0.00,,,0.00,441.000000,,2013-06-10 00:42:00,
2013-06-09 17:52:00,78.0,52.0,-100.00,NW,316,2.0,8.0,40,0.00,,,0.00,441.000000,,2013-06-10 00:52:00,
2013-06-09 18:02:00,75.0,52.0,-100.00,NNW,343,1.0,11.0,44,0.00,,,0.00,192.000000,,2013-06-10 01:02:00,
2013-06-09 18:22:00,75.0,52.0,-100.00,NNW,343,1.0,11.0,44,0.00,,,0.00,192.000000,,2013-06-10 01:22:00,
2013-06-09 18:32:00,75.0,52.0,-100.00,NNW,343,1.0,11.0,44,0.00,,,0.00,192.000000,,2013-06-10 01:32:00,
2013-06-09 18:43:00,75.0,52.0,-100.00,NNW,343,1.0,11.0,44,0.00,,,0.00,192.000000,,2013-06-10 01:43:00,
2013-06-09 18:52:00,75.0,52.0,-100.00,NNW,343,1.0,11.0,44,0.00,,,0.00,192.000000,,2013-06-10 01:52:00,
2013-06-09 19:02:00,73.0,51.0,-100.00,NNE,19,0.0,7.0,46,0.00,,,0.00,164.000000,,2013-06-10 02:02:00,
2013-06-09 19:22:00,73.0,51.0,-100.00,NNE,19,0.0,7.0,46,0.00,,,0.00,164.000000,,2013-06-10 02:22:00,
2013-06-09 19:32:00,73.0,51.0,-100.00,NNE,19,0.0,7.0,46,0.00,,,0.00,164.000000,,2013-06-10 02:32:00,
2013-06-09 19:42:00,73.0,51.0,-100.00,NNE,19,0.0,7.0,46,0.00,,,0.00,164.000000,,2013-06-10 02:42:00,
2013-06-09 19:52:00,73.0,51.0,-100.00,NNE,19,0.0,7.0,46,0.00,,,0.00,164.000000,,2013-06-10 02:52:00,
2013-06-09 20:02:00,69.0,51.0,-100.00,NNE,31,0.0,3.0,53,0.00,,,0.00,54.000000,,2013-06-10 03:02:00,
2013-06-09 20:22:00,69.0,51.0,-100.00,NNE,31,0.0,3.0,53,0.00,,,0.00,54.000000,,2013-06-10 03:22:00,
2013-06-09 20:33:00,69.0,51.0,-100.00,NNE,31,0.0,3.0,53,0.00,,,0.00,54.000000,,2013-06-10 03:33:00,
2013-06-09 20:43:00,69.0,51.0,-100.00,NNE,31,0.0,3.0,53,0.00,,,0.00,54.000000,,2013-06-10 03:43:00,
2013-06-09 20:53:00,69.0,51.0,-100.00,NNE,31,0.0,3.0,53,0.00,,,0.00,54.000000,,2013-06-10 03:53:00,
2013-06-09 21:02:00,66.0,52.0,-100.00,NE,47,0.0,0.0,60,0.00,,,0.00,2.000000,,2013-06-10 04:02:00,
2013-06-09 21:23:00,66.0,52.0,-100.00,NE,47,0.0,0.0,60,0.00,,,0.00,2.000000,,2013-06-10 04:23:00,
2013-06-09 21:33:00,66.0,52.0,-100.00,NE,47,0.0,0.0,60,0.00,,,0.00,2.000000,,2013-06-10 04:33:00,
2013-06-09 21:42:00,66.0,52.0,-100.00,NE,47,0.0,0.0,60,0.00,,,0.00,2.000000,,2013-06-10 04:42:00,
2013-06-09 21:52:00,66.0,52.0,-100.00,NE,47,0.0,0.0,60,0.00,,,0.00,2.000000,,2013-06-10 04:52:00,
2013-06-09 22:02:00,62.0,51.0,-100.00,East,85,0.0,0.0,68,0.00,,,0.00,0.000000,,2013-06-10 05:02:00,
2013-06-09 22:22:00,62.0,51.0,-100.00,East,85,0.0,0.0,68,0.00,,,0.00,0.000000,,2013-06-10 05:22:00,
2013-06-09 22:32:00,62.0,51.0,-100.00,East,85,0.0,0.0,68,0.00,,,0.00,0.000000,,2013-06-10 05:32:00,
2013-06-09 22:42:00,62.0,51.0,-100.00,East,85,0.0,0.0,68,0.00,,,0.00,0.000000,,2013-06-10 05:42:00,
2013-06-09 22:52:00,62.0,51.0,-100.00,East,85,0.0,0.0,68,0.00,,,0.00,0.000000,,2013-06-10 05:52:00,
2013-06-09 23:02:00,62.0,52.0,-100.00,ENE,77,0.0,3.0,70,0.00,,,0.00,0.000000,,2013-06-10 06:02:00,
2013-06-09 23:22:00,62.0,52.0,-100.00,ENE,77,0.0,3.0,70,0.00,,,0.00,0.000000,,2013-06-10 06:22:00,
2013-06-09 23:32:00,62.0,52.0,-100.00,ENE,77,0.0,3.0,70,0.00,,,0.00,0.000000,,2013-06-10 06:32:00,
2013-06-09 23:42:00,62.0,52.0,-100.00,ENE,77,0.0,3.0,70,0.00,,,0.00,0.000000,,2013-06-10 06:42:00,
2013-06-09 23:52:00,62.0,52.0,-100.00,ENE,77,0.0,3.0,70,0.00,,,0.00,0.000000,,2013-06-10 06:52:00,